Hauptseite
METAR-TAF:

METAR-TAF

Flughäfen :

Leconfield, England

Breite: 53-52-37N, Länge: 0-26-15W, Höhe: 7 m

Beobachtung

Neuester Wetterbericht von vor 48 Minuten, um 18:50 UTC
Wind 9 kt aus West
Temperatur 16°C
Luftfeuchtigkeit 55%
Luftdruck 1016 hPa
Sichtweite 10 km oder mehr

METAR: EGXV 221850Z AUTO 27009KT 9999 FEW180/// 16/07 Q1016

Zeit: 20:38 (19:38 UTC)


TAF: fehlend

Wetterbeobachtungen und Prognosen von mehr als 4000 Flughäfen (METAR und TAF Bericht).

Die verfügbaren Stationen werden durch gelbe und rote Markierungen auf der Karte dargestellt.

Führen Sie die Maus auf sie, um den Namen der Station zu sehen.

Darauf klicken, um die Beobachtung von Wetterbeobachtungen und Prognosen zu sehen.

Um die Karte zu ändern : klicken Sie auf den grünen Tasten mit einem schwarzen Kreuz Zum Vergrößern, auf den grünen Button mit einem Gedankenstrich zu verkleinern, oder auf die grünen Pfeile für benachbarte Karten.


METAR-TAF: